Terminal Aerodrome Forecast
Issued by NWS

Home | Current Version | Previous Version | Text Only | Print | Product List | Glossary On
Versions: 1 2 3 4 5 6 7 8 9 10 11 12 13 14 15 16 17 18 19 20 21
000
FTUS41 KOKX 291737
TAFSWF
TAF
KSWF 291737Z 2918/3024 25010KT P6SM SCT050 SCT250
     FM300100 VRB03KT P6SM FEW050 SCT200
     FM301500 27007KT P6SM SCT050 SCT150
      AMD NOT SKED=

USA.gov is the U.S. government's official web portal to all federal, state and local government web resources and services.